Time;durP1;ratioP1;P1;durP2;ratioP2;P2;SDS_P1;SDS_P2;PMS_P1;PMS_P2;Temp;Humidity;BMP_temperature;BMP_pressure;BME280_temperature;BME280_humidity;BME280_pressure;Samples;Min_cycle;Max_cycle;Signal;HPM_P1;HPM_P2
2023/03/25 00:01:31;;;;;;;;;1.00;0.50;;;;;22.32;36.64;100295.16;5040309;28;45382;-70
2023/03/25 00:03:57;;;;;;;;;0.00;0.00;;;;;22.32;36.28;100303.16;5022480;28;46047;-70
2023/03/25 00:06:22;;;;;;;;;1.00;0.25;;;;;22.30;36.17;100313.09;5055135;28;45428;-70
2023/03/25 00:08:48;;;;;;;;;1.00;1.00;;;;;22.30;36.42;100302.44;5061280;28;65966;-70
2023/03/25 00:11:13;;;;;;;;;1.00;1.00;;;;;22.29;36.41;100303.44;5041604;28;45577;-70
2023/03/25 00:13:39;;;;;;;;;1.00;1.00;;;;;22.29;36.62;100306.09;5048523;28;73023;-70
2023/03/25 00:16:06;;;;;;;;;1.00;1.00;;;;;22.28;36.17;100307.06;5025390;28;45339;-70
2023/03/25 00:18:32;;;;;;;;;0.25;0.25;;;;;22.30;36.24;100307.78;5027415;28;45438;-69
2023/03/25 00:21:02;;;;;;;;;2.75;0.25;;;;;22.30;36.03;100309.59;5058403;28;45945;-69
2023/03/25 00:23:29;;;;;;;;;2.00;0.25;;;;;22.28;36.55;100303.56;5060143;28;45567;-69
2023/03/25 00:25:59;;;;;;;;;2.00;0.00;;;;;22.28;36.18;100300.91;5052261;28;45199;-69
2023/03/25 00:28:29;;;;;;;;;2.00;0.50;;;;;22.26;36.21;100306.31;5056409;28;45225;-69
2023/03/25 00:30:57;;;;;;;;;1.00;1.00;;;;;22.26;36.42;100308.97;5031039;28;45416;-69
2023/03/25 00:33:23;;;;;;;;;1.75;0.75;;;;;22.25;36.11;100309.94;5041999;28;45271;-69
2023/03/25 00:35:51;;;;;;;;;1.25;1.00;;;;;22.21;36.02;100294.34;5056322;28;57631;-67
2023/03/25 00:38:17;;;;;;;;;3.50;0.00;;;;;22.25;36.41;100299.28;5055912;28;45476;-68
2023/03/25 00:40:42;;;;;;;;;1.75;0.50;;;;;22.27;36.34;100312.53;5045746;28;45444;-69
2023/03/25 00:43:09;;;;;;;;;2.00;1.00;;;;;22.23;36.51;100300.41;5049234;28;57145;-68
2023/03/25 00:45:35;;;;;;;;;0.50;0.50;;;;;22.25;36.38;100309.94;5028870;28;45447;-68
2023/03/25 00:48:00;;;;;;;;;1.00;1.00;;;;;22.26;36.26;100308.16;5033201;28;45437;-68
2023/03/25 00:50:26;;;;;;;;;1.00;0.75;;;;;22.26;36.37;100313.47;5019880;28;48167;-68
2023/03/25 00:52:54;;;;;;;;;0.25;0.25;;;;;22.24;36.38;100313.59;5038724;28;45357;-68
2023/03/25 00:55:20;;;;;;;;;1.25;1.00;;;;;22.25;36.33;100303.78;5020266;28;45456;-68
2023/03/25 00:57:46;;;;;;;;;0.00;0.00;;;;;22.25;36.67;100303.78;5034459;28;45277;-69
2023/03/25 01:00:14;;;;;;;;;0.00;0.00;;;;;22.23;36.61;100306.56;5030823;28;45607;-69
2023/03/25 01:02:39;;;;;;;;;1.00;1.00;;;;;22.23;36.05;100311.91;5034087;28;45378;-69
2023/03/25 01:05:05;;;;;;;;;0.00;0.00;;;;;22.23;36.03;100303.91;5047115;28;68723;-69
2023/03/25 01:07:31;;;;;;;;;1.25;0.25;;;;;22.21;36.44;100305.84;5043331;28;45444;-69
2023/03/25 01:09:57;;;;;;;;;4.00;1.00;;;;;22.22;36.51;100304.03;5049857;28;46133;-70
2023/03/25 01:12:23;;;;;;;;;0.75;0.50;;;;;22.23;36.16;100308.41;5020791;28;45616;-69
2023/03/25 01:14:49;;;;;;;;;1.75;1.00;;;;;22.22;36.21;100301.34;5041688;28;45420;-68
2023/03/25 01:17:14;;;;;;;;;2.00;0.25;;;;;22.17;36.45;100288.44;5036827;28;45541;-68
2023/03/25 01:19:43;;;;;;;;;1.25;0.25;;;;;22.18;36.31;100290.94;5034243;28;46034;-68
2023/03/25 01:22:08;;;;;;;;;0.50;0.50;;;;;22.20;36.38;100304.16;5050597;28;45574;-68
2023/03/25 01:24:34;;;;;;;;;1.50;1.00;;;;;22.18;36.36;100306.94;5056665;28;45323;-69
2023/03/25 01:27:00;;;;;;;;;3.25;1.00;;;;;22.20;36.30;100306.81;5047912;28;45400;-69
2023/03/25 01:29:25;;;;;;;;;1.25;1.00;;;;;22.17;36.74;100307.09;5029396;28;45358;-69
2023/03/25 01:31:52;;;;;;;;;3.75;1.00;;;;;22.18;36.20;100301.59;5046949;28;74375;-69
2023/03/25 01:34:18;;;;;;;;;1.00;0.00;;;;;22.19;36.14;100308.66;5038237;28;45516;-69
2023/03/25 01:36:46;;;;;;;;;1.75;0.25;;;;;22.16;36.74;100295.56;5045936;28;45484;-69
2023/03/25 01:39:17;;;;;;;;;2.50;0.25;;;;;22.15;36.60;100293.00;5045924;28;45414;-70
2023/03/25 01:41:44;;;;;;;;;2.50;1.25;;;;;22.15;36.41;100280.56;5041946;28;45442;-69
2023/03/25 01:44:29;;;;;;;;;1.00;1.00;;;;;22.18;36.22;100292.78;5053504;28;45289;-68
2023/03/25 01:46:57;;;;;;;;;2.00;0.00;;;;;22.16;36.15;100287.56;5052740;28;45854;-69
2023/03/25 01:49:32;;;;;;;;;0.00;0.00;;;;;22.14;36.63;100286.84;5050283;28;46384;-69
2023/03/25 01:52:22;;;;;;;;;2.50;1.00;;;;;22.16;36.18;100286.72;5021465;28;45715;-69
2023/03/25 01:54:51;;;;;;;;;1.00;0.25;;;;;22.15;36.39;100283.22;5050181;28;45350;-69
2023/03/25 01:57:19;;;;;;;;;4.00;1.00;;;;;22.13;36.66;100274.50;5035116;28;45460;-69
2023/03/25 01:59:45;;;;;;;;;0.25;0.00;;;;;22.14;36.28;100270.84;5032448;28;45636;-69
2023/03/25 02:02:14;;;;;;;;;0.50;0.00;;;;;22.15;36.27;100272.56;5026706;28;45267;-69
2023/03/25 02:04:44;;;;;;;;;2.00;0.00;;;;;22.14;36.73;100270.03;5037267;28;45860;-69
2023/03/25 02:07:10;;;;;;;;;1.00;1.00;;;;;22.14;36.27;100267.34;5031143;28;45409;-69
2023/03/25 02:09:39;;;;;;;;;2.75;1.00;;;;;22.11;36.51;100267.59;5033430;28;46334;-69
2023/03/25 02:12:04;;;;;;;;;0.50;0.50;;;;;22.13;36.30;100277.19;5036631;28;45886;-69
2023/03/25 02:14:33;;;;;;;;;1.50;0.75;;;;;22.11;36.13;100271.09;5051936;28;45478;-69
2023/03/25 02:17:05;;;;;;;;;0.50;0.25;;;;;22.13;36.17;100268.31;5041368;28;45415;-69
2023/03/25 02:20:07;;;;;;;;;0.75;0.00;;;;;22.09;36.66;100267.72;5046160;28;45391;-69
2023/03/25 02:23:27;;;;;;;;;4.00;1.00;;;;;22.13;36.29;100265.66;5015746;28;45471;-68
2023/03/25 02:25:55;;;;;;;;;1.50;0.50;;;;;22.11;36.55;100248.94;4958798;28;45482;-69
2023/03/25 02:28:52;;;;;;;;;3.00;0.75;;;;;22.11;36.19;100257.78;5035276;28;45447;-69
2023/03/25 02:31:31;;;;;;;;;0.75;0.00;;;;;22.10;36.33;100255.28;5041941;28;45340;-68
2023/03/25 02:33:56;;;;;;;;;1.00;1.00;;;;;22.11;36.60;100262.28;5045745;28;45792;-68
2023/03/25 02:36:42;;;;;;;;;2.00;1.00;;;;;22.07;36.92;100248.38;5040123;28;45409;-68
2023/03/25 02:39:10;;;;;;;;;1.00;0.50;;;;;22.08;36.22;100252.72;5054852;28;45498;-68
2023/03/25 02:41:40;;;;;;;;;0.00;0.00;;;;;22.09;36.34;100259.72;5047822;28;45503;-68
2023/03/25 02:44:29;;;;;;;;;2.75;0.50;;;;;22.08;36.58;100251.88;5022471;28;45880;-68
2023/03/25 02:46:56;;;;;;;;;0.00;0.00;;;;;22.08;36.29;100255.41;5047172;28;45568;-68
2023/03/25 02:49:35;;;;;;;;;0.75;0.00;;;;;22.07;36.23;100250.19;5037113;28;45305;-68
2023/03/25 02:52:19;;;;;;;;;4.00;0.00;;;;;22.04;36.93;100239.78;5024896;28;45467;-68
2023/03/25 02:54:46;;;;;;;;;0.00;0.00;;;;;22.06;36.84;100245.81;5039921;28;45574;-69
2023/03/25 02:57:14;;;;;;;;;3.25;0.50;;;;;22.05;36.44;100249.47;5038747;28;45408;-68
2023/03/25 02:59:40;;;;;;;;;1.00;0.50;;;;;22.04;36.91;100247.78;5037407;28;46387;-68
2023/03/25 03:02:10;;;;;;;;;0.50;0.50;;;;;22.06;36.90;100251.16;5018980;28;47206;-68
2023/03/25 03:04:53;;;;;;;;;2.00;1.00;;;;;22.03;36.27;100246.06;5035918;28;45419;-67
2023/03/25 03:07:35;;;;;;;;;0.00;0.00;;;;;22.00;36.39;100247.19;5028681;28;45266;-68
2023/03/25 03:10:06;;;;;;;;;0.50;0.50;;;;;22.06;36.81;100260.00;5027028;28;46101;-68
2023/03/25 03:13:05;;;;;;;;;2.00;1.00;;;;;22.04;36.75;100243.28;5049641;28;45527;-68
2023/03/25 03:15:34;;;;;;;;;1.00;0.00;;;;;22.04;36.47;100250.44;5037778;28;45673;-68
2023/03/25 03:18:25;;;;;;;;;1.25;0.25;;;;;22.03;36.78;100259.38;5034349;28;45458;-69
2023/03/25 03:20:55;;;;;;;;;1.25;1.00;;;;;22.03;36.46;100260.25;5030467;28;45603;-68
2023/03/25 03:23:22;;;;;;;;;0.75;0.75;;;;;22.03;36.86;100254.06;5039990;28;50093;-69
2023/03/25 03:25:55;;;;;;;;;0.00;0.00;;;;;22.02;36.87;100250.56;5047082;28;45490;-69
2023/03/25 03:28:31;;;;;;;;;1.00;1.00;;;;;22.01;36.63;100248.88;5048228;28;45565;-70
2023/03/25 03:31:23;;;;;;;;;3.25;1.00;;;;;22.01;36.31;100254.22;5031562;28;45733;-69
2023/03/25 03:33:54;;;;;;;;;0.00;0.00;;;;;22.00;36.69;100258.69;5026367;28;48063;-69
2023/03/25 03:36:22;;;;;;;;;2.00;0.50;;;;;22.00;37.01;100256.00;5029058;28;45330;-68
2023/03/25 03:38:53;;;;;;;;;1.50;0.00;;;;;22.00;36.41;100257.84;5026264;28;45461;-69
2023/03/25 03:41:20;;;;;;;;;5.75;1.00;;;;;22.00;36.85;100257.84;5036965;28;45464;-69
2023/03/25 03:44:18;;;;;;;;;2.50;0.00;;;;;22.01;36.81;100259.53;5029165;28;45332;-69
2023/03/25 03:46:58;;;;;;;;;0.75;0.75;;;;;22.00;36.92;100256.00;5018079;28;45297;-69
2023/03/25 03:49:29;;;;;;;;;1.00;0.00;;;;;21.98;36.62;100252.63;5030771;28;45294;-69
2023/03/25 03:52:09;;;;;;;;;1.00;1.00;;;;;21.98;36.67;100257.97;5034217;28;45493;-69
2023/03/25 03:54:50;;;;;;;;;2.00;1.00;;;;;21.97;36.50;100258.09;5041551;28;47189;-69
2023/03/25 03:57:23;;;;;;;;;0.00;0.00;;;;;21.97;36.55;100256.28;5055815;28;45534;-69
2023/03/25 04:00:08;;;;;;;;;1.00;1.00;;;;;21.97;36.79;100258.94;5034381;28;45298;-69
2023/03/25 04:03:01;;;;;;;;;1.25;0.00;;;;;21.97;36.49;100258.09;5027881;28;45502;-69
2023/03/25 04:05:29;;;;;;;;;0.00;0.00;;;;;21.96;36.75;100259.91;5029177;28;45673;-69
2023/03/25 04:08:10;;;;;;;;;0.75;0.75;;;;;21.95;36.82;100265.38;5039665;28;45327;-69
2023/03/25 04:10:51;;;;;;;;;1.50;0.00;;;;;21.96;36.94;100269.72;5032260;28;45344;-69
2023/03/25 04:13:18;;;;;;;;;0.00;0.00;;;;;21.96;37.00;100273.22;5025047;28;45397;-69
2023/03/25 04:15:43;;;;;;;;;0.25;0.25;;;;;21.95;36.48;100279.53;5037561;28;47360;-69
2023/03/25 04:18:09;;;;;;;;;0.50;0.00;;;;;21.95;36.97;100270.69;5044234;28;71003;-69
2023/03/25 04:20:35;;;;;;;;;0.75;0.00;;;;;21.97;36.93;100280.28;5034088;28;45343;-69
2023/03/25 04:23:03;;;;;;;;;1.00;0.00;;;;;21.95;36.28;100276.03;5035279;28;45456;-69
2023/03/25 04:25:31;;;;;;;;;1.50;0.00;;;;;21.93;37.00;100272.63;5049128;28;46222;-69
2023/03/25 04:27:57;;;;;;;;;0.25;0.25;;;;;21.95;36.51;100270.69;5055378;28;45438;-69
2023/03/25 04:30:24;;;;;;;;;0.00;0.00;;;;;21.94;36.92;100271.69;5048476;28;45507;-69
2023/03/25 04:32:50;;;;;;;;;1.00;0.00;;;;;21.94;36.47;100280.50;5048985;28;45536;-69
2023/03/25 04:35:18;;;;;;;;;0.00;0.00;;;;;21.93;36.60;100280.63;5027880;28;45381;-69
2023/03/25 04:37:44;;;;;;;;;1.00;1.00;;;;;21.93;36.77;100281.47;5054775;28;45269;-69
2023/03/25 04:40:17;;;;;;;;;0.25;0.00;;;;;21.93;36.89;100284.13;5055115;28;45415;-69
2023/03/25 04:42:45;;;;;;;;;0.00;0.00;;;;;21.93;36.81;100292.13;5037028;28;45315;-69
2023/03/25 04:45:13;;;;;;;;;2.00;0.00;;;;;21.92;37.00;100284.25;5037857;28;45611;-69
2023/03/25 04:47:43;;;;;;;;;1.25;0.00;;;;;21.91;36.67;100294.06;5036812;28;45691;-69
2023/03/25 04:50:30;;;;;;;;;0.75;0.00;;;;;21.91;37.05;100301.22;5031319;28;45531;-69
2023/03/25 04:52:57;;;;;;;;;1.00;0.00;;;;;21.90;36.40;100303.06;5036436;28;45575;-69
2023/03/25 04:55:24;;;;;;;;;0.50;0.00;;;;;21.92;37.05;100308.22;5036822;28;46044;-69
2023/03/25 04:57:51;;;;;;;;;2.00;0.00;;;;;21.89;36.49;100309.34;5040386;28;45677;-69
2023/03/25 05:00:19;;;;;;;;;0.25;0.00;;;;;21.89;36.55;100313.84;5032997;28;45415;-69
2023/03/25 05:02:46;;;;;;;;;0.00;0.00;;;;;21.90;36.57;100318.16;5051944;28;45515;-69
2023/03/25 05:05:19;;;;;;;;;2.00;1.00;;;;;21.90;36.40;100305.72;5031672;28;46105;-69
2023/03/25 05:07:52;;;;;;;;;0.25;0.00;;;;;21.88;36.98;100320.97;5042510;28;45432;-69
2023/03/25 05:10:21;;;;;;;;;2.50;1.00;;;;;21.89;36.79;100319.16;5039423;28;45453;-69
2023/03/25 05:12:46;;;;;;;;;2.00;0.75;;;;;21.89;36.91;100328.00;5024867;28;45844;-69
2023/03/25 05:15:12;;;;;;;;;0.75;0.00;;;;;21.87;36.42;100323.75;5045128;28;45538;-69
2023/03/25 05:17:38;;;;;;;;;0.00;0.00;;;;;21.90;36.93;100334.16;5023806;28;45898;-69
2023/03/25 05:20:07;;;;;;;;;0.50;0.00;;;;;21.90;36.51;100339.50;5032292;28;55507;-69
2023/03/25 05:22:33;;;;;;;;;2.75;0.00;;;;;21.90;36.40;100342.16;5057093;28;45359;-69
2023/03/25 05:25:01;;;;;;;;;0.00;0.00;;;;;21.89;36.60;100340.47;5039636;28;46131;-69
2023/03/25 05:27:32;;;;;;;;;0.00;0.00;;;;;21.87;36.84;100337.94;5053156;28;46074;-69
2023/03/25 05:29:58;;;;;;;;;0.25;0.00;;;;;21.88;36.85;100349.44;5053290;28;45511;-68
2023/03/25 05:32:24;;;;;;;;;0.00;0.00;;;;;21.88;36.86;100344.94;5036310;28;45623;-69
2023/03/25 05:34:52;;;;;;;;;4.00;0.00;;;;;21.88;36.38;100350.25;5054319;28;46307;-68
2023/03/25 05:37:18;;;;;;;;;0.00;0.00;;;;;21.88;36.63;100360.09;5034891;28;45558;-69
2023/03/25 05:39:43;;;;;;;;;0.00;0.00;;;;;21.88;36.84;100355.59;5037459;28;45555;-69
2023/03/25 05:42:09;;;;;;;;;0.00;0.00;;;;;21.88;36.86;100360.91;5031467;28;45539;-69
2023/03/25 05:44:35;;;;;;;;;0.75;0.00;;;;;21.88;36.78;100368.06;5039126;28;45631;-69
2023/03/25 05:47:00;;;;;;;;;0.00;0.00;;;;;21.85;36.39;100362.97;5027624;28;45206;-69
2023/03/25 05:49:26;;;;;;;;;0.25;0.00;;;;;21.88;36.34;100378.72;5029760;28;45274;-69
2023/03/25 05:51:54;;;;;;;;;0.00;0.00;;;;;21.86;36.88;100368.19;5035556;28;45389;-69
2023/03/25 05:54:23;;;;;;;;;0.25;0.00;;;;;21.86;36.45;100373.53;5053255;28;45936;-69
2023/03/25 05:56:51;;;;;;;;;1.00;0.00;;;;;21.84;36.09;100377.28;5027295;28;45618;-69
2023/03/25 05:59:16;;;;;;;;;2.00;0.00;;;;;21.84;36.87;100386.13;5033830;28;45305;-69
2023/03/25 06:01:44;;;;;;;;;0.00;0.00;;;;;21.85;36.53;100385.16;5050764;28;45293;-69
2023/03/25 06:04:11;;;;;;;;;0.00;0.00;;;;;21.85;36.49;100385.16;5038146;28;46430;-69
2023/03/25 06:06:38;;;;;;;;;0.25;0.00;;;;;21.86;36.15;100389.50;5046265;28;45411;-69
2023/03/25 06:09:04;;;;;;;;;0.00;0.00;;;;;21.85;36.33;100393.16;5038216;28;45494;-68
2023/03/25 06:11:30;;;;;;;;;0.00;0.00;;;;;21.84;36.73;100402.09;5038725;28;45396;-68
2023/03/25 06:13:55;;;;;;;;;1.00;0.00;;;;;21.83;36.11;100392.41;5047216;28;75384;-68
2023/03/25 06:16:26;;;;;;;;;0.25;0.00;;;;;21.83;36.51;100392.41;5048056;28;62242;-69
2023/03/25 06:19:00;;;;;;;;;0.00;0.00;;;;;21.84;36.52;100404.78;5058322;28;45388;-69
2023/03/25 06:21:27;;;;;;;;;0.00;0.00;;;;;21.83;36.58;100405.72;5031986;28;45482;-69
2023/03/25 06:23:53;;;;;;;;;0.50;0.00;;;;;21.82;36.65;100408.53;5022396;28;46115;-69
2023/03/25 06:26:20;;;;;;;;;0.25;0.00;;;;;21.83;36.57;100419.03;5028447;28;45454;-69
2023/03/25 06:28:46;;;;;;;;;0.00;0.00;;;;;21.83;36.24;100416.38;5035839;28;45452;-68
2023/03/25 06:31:13;;;;;;;;;0.00;0.00;;;;;21.84;36.57;100419.91;5048084;28;68283;-69
2023/03/25 06:33:38;;;;;;;;;0.00;0.00;;;;;21.83;36.15;100418.22;5050754;28;45351;-69
2023/03/25 06:36:04;;;;;;;;;0.00;0.00;;;;;21.80;36.21;100419.31;5024666;28;45333;-69
2023/03/25 06:38:32;;;;;;;;;0.25;0.00;;;;;21.83;36.18;100426.19;5041382;28;45471;-69
2023/03/25 06:40:58;;;;;;;;;3.00;0.00;;;;;21.82;36.11;100438.69;5051524;28;45425;-69
2023/03/25 06:43:23;;;;;;;;;0.00;0.00;;;;;21.82;36.58;100429.84;5033132;28;47551;-69
2023/03/25 06:45:50;;;;;;;;;0.00;0.00;;;;;21.79;36.52;100429.09;5039936;28;45384;-69
2023/03/25 06:48:15;;;;;;;;;0.00;0.00;;;;;21.80;36.50;100441.47;5033372;28;45429;-69
2023/03/25 06:50:41;;;;;;;;;1.00;0.00;;;;;21.82;36.07;100446.66;5037689;28;45420;-69
2023/03/25 06:53:06;;;;;;;;;0.75;0.00;;;;;21.79;36.19;100439.75;5020031;28;67689;-69
2023/03/25 06:55:31;;;;;;;;;0.00;0.00;;;;;21.78;36.11;100443.41;5046365;28;56511;-69
2023/03/25 06:57:57;;;;;;;;;0.00;0.00;;;;;21.82;35.99;100452.00;5032341;28;62709;-69
2023/03/25 07:00:23;;;;;;;;;0.00;0.00;;;;;21.81;36.53;100452.97;5047883;28;45586;-69
2023/03/25 07:02:49;;;;;;;;;0.00;0.00;;;;;21.79;36.45;100452.22;5051518;28;46181;-69
2023/03/25 07:05:14;;;;;;;;;0.50;0.00;;;;;21.80;36.15;100457.44;5035224;28;45261;-69
2023/03/25 07:07:40;;;;;;;;;1.00;0.00;;;;;21.82;36.46;100457.31;5057497;28;45435;-68
2023/03/25 07:10:06;;;;;;;;;2.50;0.00;;;;;21.75;36.13;100451.63;5053304;28;45587;-68
2023/03/25 07:12:33;;;;;;;;;1.00;0.00;;;;;21.81;36.23;100466.28;5040117;28;45507;-68
2023/03/25 07:14:59;;;;;;;;;0.25;0.00;;;;;21.76;36.77;100452.47;5051658;28;45371;-68
2023/03/25 07:17:24;;;;;;;;;0.00;0.00;;;;;21.84;36.35;100465.19;5034256;28;45523;-68
2023/03/25 07:19:52;;;;;;;;;1.00;0.00;;;;;21.87;36.29;100454.28;5030605;28;62195;-68
2023/03/25 07:22:17;;;;;;;;;2.00;0.00;;;;;21.86;36.47;100457.94;5050359;28;46217;-68
2023/03/25 07:24:43;;;;;;;;;0.00;0.00;;;;;21.90;36.31;100460.25;5056699;28;45214;-68
2023/03/25 07:27:12;;;;;;;;;1.00;0.00;;;;;21.95;36.43;100462.53;5050041;28;45396;-68
2023/03/25 07:29:38;;;;;;;;;3.00;0.00;;;;;21.96;36.75;100467.75;5032656;28;45540;-68
2023/03/25 07:32:03;;;;;;;;;0.00;0.00;;;;;22.01;36.58;100467.38;5054581;28;45478;-68
2023/03/25 07:34:29;;;;;;;;;0.00;0.00;;;;;22.06;36.50;100464.34;5030984;28;45443;-68
2023/03/25 07:36:55;;;;;;;;;0.00;0.00;;;;;22.05;36.87;100460.00;5038027;28;45494;-68
2023/03/25 07:39:20;;;;;;;;;2.00;0.00;;;;;22.13;36.43;100469.06;5034826;28;45348;-67
2023/03/25 07:41:46;;;;;;;;;0.00;0.00;;;;;22.19;36.56;100479.22;5027206;28;45306;-68
2023/03/25 07:44:13;;;;;;;;;0.00;0.00;;;;;22.23;36.41;100484.31;5032666;28;45464;-68
2023/03/25 07:46:38;;;;;;;;;0.00;0.00;;;;;22.27;36.28;100481.31;5032201;28;45400;-68
2023/03/25 07:49:03;;;;;;;;;3.00;0.00;;;;;22.32;36.64;100489.78;5016846;28;45298;-68
2023/03/25 07:51:29;;;;;;;;;0.00;0.00;;;;;22.36;36.33;100496.59;5055802;28;50573;-68
2023/03/25 07:53:54;;;;;;;;;1.00;0.00;;;;;22.42;36.33;100494.41;5049307;28;45282;-68
2023/03/25 07:56:20;;;;;;;;;0.75;0.00;;;;;22.45;36.78;100494.13;5053658;28;45347;-67
2023/03/25 07:58:45;;;;;;;;;0.00;0.00;;;;;22.49;36.43;100515.09;5044801;28;45484;-67
2023/03/25 08:01:10;;;;;;;;;1.00;0.00;;;;;22.52;36.35;100503.31;5050754;28;46310;-68
2023/03/25 08:03:38;;;;;;;;;0.00;0.00;;;;;22.57;36.30;100501.13;5049476;28;69296;-69
2023/03/25 08:06:04;;;;;;;;;0.00;0.00;;;;;22.63;36.50;100503.31;5037390;28;45492;-69
2023/03/25 08:08:29;;;;;;;;;0.00;0.00;;;;;22.67;36.60;100502.06;5037722;28;45519;-69
2023/03/25 08:10:55;;;;;;;;;2.00;0.00;;;;;22.75;36.47;100520.13;5045514;28;45546;-68
2023/03/25 08:13:20;;;;;;;;;0.00;0.00;;;;;22.77;35.63;100517.31;5031067;28;45413;-67
2023/03/25 08:15:46;;;;;;;;;1.50;0.00;;;;;22.80;36.18;100519.75;5043712;28;45569;-67
2023/03/25 08:18:11;;;;;;;;;0.75;0.00;;;;;22.85;36.32;100523.72;5045988;28;45254;-68
2023/03/25 08:20:36;;;;;;;;;0.00;0.00;;;;;22.86;36.35;100535.25;5052998;28;45527;-68
2023/03/25 08:23:02;;;;;;;;;1.75;0.00;;;;;22.92;36.21;100534.75;5031435;28;45247;-68
2023/03/25 08:25:29;;;;;;;;;1.00;0.00;;;;;22.95;36.14;100531.84;5061450;28;45530;-68
2023/03/25 08:27:54;;;;;;;;;2.00;0.00;;;;;23.00;36.05;100534.97;5038736;28;45547;-68
2023/03/25 08:30:21;;;;;;;;;0.50;0.00;;;;;23.02;35.29;100535.69;5029208;28;57445;-69
2023/03/25 08:32:53;;;;;;;;;0.00;0.00;;;;;23.02;35.40;100535.69;5026731;28;45448;-68
2023/03/25 08:35:19;;;;;;;;;0.75;0.00;;;;;23.03;34.98;100553.38;5023485;28;45250;-75
2023/03/25 08:37:44;;;;;;;;;3.00;0.00;;;;;23.02;34.63;100545.50;5036082;28;45549;-68
2023/03/25 08:40:10;;;;;;;;;0.25;0.25;;;;;23.00;34.39;100526.09;5039460;28;48282;-69
2023/03/25 08:42:37;;;;;;;;;2.75;0.75;;;;;22.98;34.16;100539.56;5041643;28;45368;-69
2023/03/25 08:45:06;;;;;;;;;0.75;0.75;;;;;22.99;34.05;100548.44;5036791;28;45449;-69
2023/03/25 08:47:32;;;;;;;;;2.00;0.00;;;;;22.94;33.73;100532.81;5014318;28;45706;-68
2023/03/25 08:49:57;;;;;;;;;1.50;0.00;;;;;22.97;33.81;100545.06;5036456;28;45415;-68
2023/03/25 08:52:22;;;;;;;;;0.50;0.00;;;;;22.97;33.65;100543.22;5047604;28;73065;-68
2023/03/25 08:54:48;;;;;;;;;1.25;0.00;;;;;22.93;33.73;100536.47;5033217;28;45471;-68
2023/03/25 08:57:13;;;;;;;;;2.75;0.00;;;;;22.92;33.52;100540.94;5053296;28;57397;-68
2023/03/25 08:59:39;;;;;;;;;0.25;0.00;;;;;22.93;33.30;100557.81;5058254;28;65025;-68
2023/03/25 09:02:05;;;;;;;;;0.00;0.00;;;;;22.90;33.22;100532.22;5057050;28;45375;-69
2023/03/25 09:04:30;;;;;;;;;1.75;0.25;;;;;22.85;33.67;100526.41;5027744;28;45575;-71
2023/03/25 09:06:56;;;;;;;;;1.75;0.00;;;;;22.85;33.99;100520.22;5051160;28;45487;-71
2023/03/25 09:09:22;;;;;;;;;2.00;0.25;;;;;22.88;33.91;100534.16;5035406;28;45304;-71
2023/03/25 09:11:47;;;;;;;;;0.75;0.00;;;;;22.87;34.01;100529.78;5021179;28;45755;-71
2023/03/25 09:14:12;;;;;;;;;1.25;0.75;;;;;22.88;34.25;100530.66;5036161;28;71260;-71
2023/03/25 09:16:38;;;;;;;;;2.00;0.00;;;;;22.89;33.95;100533.16;5039798;28;46168;-71
2023/03/25 09:19:03;;;;;;;;;0.00;0.00;;;;;22.91;33.92;100525.03;5038507;28;77327;-71
2023/03/25 09:21:28;;;;;;;;;2.00;0.00;;;;;22.92;34.24;100543.59;5047942;28;45364;-71
2023/03/25 09:23:54;;;;;;;;;0.00;0.00;;;;;22.92;34.22;100550.75;5041862;28;45376;-71
2023/03/25 09:26:19;;;;;;;;;0.25;0.25;;;;;22.97;34.17;100540.56;5047021;28;45667;-72
2023/03/25 09:28:45;;;;;;;;;1.00;0.00;;;;;22.97;33.95;100545.06;5040921;28;71666;-72
2023/03/25 09:31:10;;;;;;;;;2.50;0.25;;;;;22.99;34.52;100543.94;5026471;28;45999;-72
2023/03/25 09:33:36;;;;;;;;;0.00;0.00;;;;;23.03;34.03;100557.88;5051640;28;45492;-72
2023/03/25 09:36:02;;;;;;;;;0.25;0.00;;;;;23.05;33.92;100555.97;5036066;28;45279;-72
2023/03/25 09:38:28;;;;;;;;;0.25;0.00;;;;;23.10;34.38;100567.94;5021154;28;47480;-72
2023/03/25 09:40:53;;;;;;;;;3.00;0.00;;;;;23.10;34.42;100561.78;5033397;28;45337;-72
2023/03/25 09:43:21;;;;;;;;;0.00;0.00;;;;;23.15;33.99;100572.91;5051250;28;45467;-72
2023/03/25 09:45:48;;;;;;;;;1.50;0.25;;;;;23.11;34.22;100558.16;5052668;28;45451;-72
2023/03/25 09:48:35;;;;;;;;;1.00;0.00;;;;;23.18;34.25;100563.81;5038502;28;67710;-72
2023/03/25 09:51:10;;;;;;;;;1.25;0.00;;;;;23.22;33.88;100567.94;5037977;28;45402;-72
2023/03/25 09:53:44;;;;;;;;;2.00;0.00;;;;;23.24;34.43;100579.31;5039806;28;45222;-72
2023/03/25 09:56:19;;;;;;;;;1.00;0.00;;;;;23.24;34.21;100574.00;5016524;28;46195;-72
2023/03/25 09:58:46;;;;;;;;;3.00;0.00;;;;;23.27;34.00;100587.09;5032705;28;45466;-72
2023/03/25 10:01:42;;;;;;;;;0.25;0.00;;;;;23.29;34.55;100587.81;5021939;28;45531;-72
2023/03/25 10:04:27;;;;;;;;;0.00;0.00;;;;;23.30;34.49;100592.16;5050717;28;45512;-72
2023/03/25 10:07:11;;;;;;;;;2.50;0.00;;;;;23.30;34.44;100593.03;5059873;28;45443;-72
2023/03/25 10:09:36;;;;;;;;;0.00;0.00;;;;;23.32;33.98;100598.25;5036929;28;48172;-72
2023/03/25 10:12:17;;;;;;;;;1.75;0.00;;;;;23.31;34.16;100580.50;5058000;28;45264;-72
2023/03/25 10:15:04;;;;;;;;;0.00;0.00;;;;;23.32;34.19;100592.91;5050619;28;45466;-72
2023/03/25 10:18:11;;;;;;;;;3.00;0.00;;;;;23.35;34.56;100591.78;5037188;28;45520;-72
2023/03/25 10:20:43;;;;;;;;;0.50;0.00;;;;;23.34;34.26;100604.28;5019948;28;48104;-72
2023/03/25 10:23:25;;;;;;;;;0.25;0.00;;;;;23.36;34.11;100604.16;5039310;28;45612;-72
2023/03/25 10:25:55;;;;;;;;;2.25;0.25;;;;;23.33;34.22;100591.91;5043707;28;45305;-72
2023/03/25 10:28:27;;;;;;;;;1.25;0.00;;;;;23.34;34.29;100603.44;5036961;28;45301;-72
2023/03/25 10:30:53;;;;;;;;;1.00;0.00;;;;;23.35;34.22;100594.44;5032687;28;45428;-72
2023/03/25 10:33:33;;;;;;;;;0.50;0.00;;;;;23.35;34.45;100597.13;5034920;28;45888;-71
2023/03/25 10:36:00;;;;;;;;;2.00;0.00;;;;;23.37;34.48;100601.34;5029148;28;45527;-77
2023/03/25 10:38:29;;;;;;;;;2.00;0.00;;;;;23.38;34.06;100587.03;5029429;28;45544;-70
2023/03/25 10:41:30;;;;;;;;;0.75;0.00;;;;;23.37;34.17;100593.34;5053313;28;46200;-70
2023/03/25 10:43:55;;;;;;;;;0.50;0.00;;;;;23.38;34.25;100592.38;5020849;28;46671;-68
2023/03/25 10:46:38;;;;;;;;;0.00;0.00;;;;;23.42;34.70;100590.28;5054239;28;45367;-68
2023/03/25 10:49:03;;;;;;;;;0.00;0.00;;;;;23.43;34.42;100603.53;5046413;28;45459;-69
2023/03/25 10:51:32;;;;;;;;;0.00;0.00;;;;;23.46;34.28;100605.94;5065905;28;73964;-67
2023/03/25 10:53:58;;;;;;;;;0.50;0.00;;;;;23.48;34.42;100601.31;5031899;28;45851;-68
2023/03/25 10:56:34;;;;;;;;;2.75;0.00;;;;;23.50;34.59;100602.03;5044964;28;45750;-70
2023/03/25 10:59:03;;;;;;;;;0.75;0.00;;;;;23.52;34.29;100591.22;5050278;28;45371;-67
2023/03/25 11:01:38;;;;;;;;;2.00;0.00;;;;;23.55;34.62;100601.66;5050300;28;46419;-69
2023/03/25 11:04:09;;;;;;;;;0.00;0.00;;;;;23.57;34.52;100604.19;5024209;28;45470;-68
2023/03/25 11:06:40;;;;;;;;;2.00;1.00;;;;;23.59;34.67;100604.91;5040035;28;45490;-68
2023/03/25 11:09:18;;;;;;;;;0.00;0.00;;;;;23.61;34.72;100603.81;5059821;28;45431;-68
2023/03/25 11:11:44;;;;;;;;;0.25;0.25;;;;;23.62;34.83;100589.47;5056644;28;47167;-68
2023/03/25 11:14:11;;;;;;;;;1.00;0.00;;;;;23.65;34.70;100593.69;5065422;28;45328;-68
2023/03/25 11:16:43;;;;;;;;;0.25;0.25;;;;;23.67;34.63;100592.63;5065644;28;45304;-68
2023/03/25 11:19:17;;;;;;;;;1.00;0.00;;;;;23.68;34.47;100604.13;5036360;28;45361;-69
2023/03/25 11:21:46;;;;;;;;;0.00;0.00;;;;;23.70;34.48;100599.50;5035431;28;45509;-69
2023/03/25 11:24:13;;;;;;;;;0.00;0.00;;;;;23.70;34.52;100615.53;5040735;28;45688;-69
2023/03/25 11:26:40;;;;;;;;;0.25;0.00;;;;;23.69;34.45;100604.00;5045539;28;45542;-70
2023/03/25 11:29:08;;;;;;;;;1.00;0.00;;;;;23.71;34.39;100606.56;5030092;28;45250;-70
2023/03/25 11:31:36;;;;;;;;;0.50;0.00;;;;;23.70;34.86;100603.00;5046719;28;46148;-70
2023/03/25 11:34:04;;;;;;;;;1.00;1.00;;;;;23.74;34.43;100592.06;5060710;28;45261;-68
2023/03/25 11:36:31;;;;;;;;;0.25;0.00;;;;;23.72;34.53;100613.56;5037405;28;45462;-69